Time;durP1;ratioP1;P1;durP2;ratioP2;P2;SDS_P1;SDS_P2;PMS_P1;PMS_P2;Temp;Humidity;BMP_temperature;BMP_pressure;BME280_temperature;BME280_humidity;BME280_pressure;Samples;Min_cycle;Max_cycle;Signal;HPM_P1;HPM_P2
2022/01/15 00:01:10;;;;;;;5.20;1.60;;;20.00;47.00;;;;;;4947006;28;20515;-88
2022/01/15 00:03:35;;;;;;;4.28;1.10;;;21.50;48.10;;;;;;4935882;29;20142;-88
2022/01/15 00:06:04;;;;;;;3.83;1.30;;;18.80;46.40;;;;;;4936757;29;20130;-87
2022/01/15 00:08:47;;;;;;;4.18;1.48;;;20.40;47.20;;;;;;4937232;29;20446;-87
2022/01/15 00:14:54;;;;;;;3.20;1.40;;;20.50;46.90;;;;;;4953987;29;20125;-88
2022/01/15 00:18:14;;;;;;;2.70;1.08;;;21.10;47.30;;;;;;4935743;29;20047;-88
2022/01/15 00:20:30;;;;;;;3.95;1.40;;;18.50;46.10;;;;;;4933449;29;20134;-88
2022/01/15 00:23:13;;;;;;;4.68;1.27;;;21.80;48.00;;;;;;4936355;28;20225;-88
2022/01/15 00:25:39;;;;;;;3.35;1.40;;;20.80;47.30;;;;;;4935365;28;20557;-88
2022/01/15 00:28:05;;;;;;;3.17;1.02;;;21.10;47.60;;;;;;4931677;28;20125;-88
2022/01/15 00:30:46;;;;;;;3.15;1.00;;;20.70;47.30;;;;;;4951506;23;20105;-88
2022/01/15 00:33:43;;;;;;;4.07;1.15;;;21.40;48.00;;;;;;4901532;29;20056;-87
2022/01/15 00:36:09;;;;;;;2.28;0.90;;;21.50;48.00;;;;;;4917617;29;20099;-88
2022/01/15 00:38:35;;;;;;;3.40;1.02;;;18.10;46.00;;;;;;4916579;29;20400;-88
2022/01/15 00:41:03;;;;;;;4.50;1.17;;;20.30;47.50;;;;;;4886028;29;20048;-89
2022/01/15 00:43:28;;;;;;;3.25;1.00;;;20.80;47.50;;;;;;4933558;29;20055;-89
2022/01/15 00:45:57;;;;;;;4.10;1.42;;;21.10;47.80;;;;;;4916642;29;20525;-88
2022/01/15 00:48:36;;;;;;;2.75;0.93;;;21.30;47.40;;;;;;4911785;29;20143;-88
2022/01/15 00:51:02;;;;;;;3.20;0.90;;;21.00;48.00;;;;;;4932839;29;20087;-87
2022/01/15 00:53:28;;;;;;;4.22;1.38;;;21.00;47.80;;;;;;4916767;29;20134;-88
2022/01/15 00:56:10;;;;;;;3.28;1.10;;;19.20;46.60;;;;;;4917603;29;20154;-88
2022/01/15 00:58:35;;;;;;;4.28;1.25;;;18.20;46.00;;;;;;4917430;29;20556;-88
2022/01/15 01:01:01;;;;;;;2.50;0.82;;;18.30;46.30;;;;;;4916739;29;20047;-88
2022/01/15 01:03:45;;;;;;;3.03;1.00;;;19.20;46.70;;;;;;4916993;29;20043;-89
2022/01/15 01:06:22;;;;;;;2.67;0.80;;;18.40;46.20;;;;;;4916211;29;20051;-87
2022/01/15 01:08:48;;;;;;;3.45;1.10;;;20.30;47.40;;;;;;4916947;29;20050;-88
2022/01/15 01:11:44;;;;;;;3.25;1.00;;;19.80;47.20;;;;;;4916751;29;20052;-88
2022/01/15 01:20:11;;;;;;;3.22;0.90;;;21.80;48.00;;;;;;4916190;29;20048;-88
2022/01/15 01:22:57;;;;;;;3.17;1.02;;;20.10;47.40;;;;;;4916515;29;20435;-88
2022/01/15 01:25:26;;;;;;;2.20;0.60;;;21.30;47.70;;;;;;4916569;29;20055;-88
2022/01/15 01:27:55;;;;;;;2.58;0.90;;;21.50;47.90;;;;;;4916067;29;20107;-88
2022/01/15 01:30:54;;;;;;;2.65;1.02;;;20.10;47.30;;;;;;4916308;29;20090;-87
2022/01/15 01:33:49;;;;;;;2.50;0.90;;;18.70;46.40;;;;;;4933550;29;20493;-88
2022/01/15 01:36:56;;;;;;;;;;;;;;;;;;;;;
2022/01/15 01:39:25;;;;;;;3.17;0.85;;;20.00;47.40;;;;;;4916117;29;20047;-87
2022/01/15 01:44:42;;;;;;;2.33;0.90;;;20.00;47.30;;;;;;4915917;29;20087;-88
2022/01/15 01:47:33;;;;;;;2.67;0.95;;;21.40;47.90;;;;;;4916015;29;20055;-88
2022/01/15 01:50:20;;;;;;;2.10;0.75;;;20.00;47.10;;;;;;4915128;29;20057;-87
2022/01/15 01:52:53;;;;;;;1.95;0.68;;;20.10;47.40;;;;;;4916530;29;20155;-88
2022/01/15 01:55:31;;;;;;;3.60;0.90;;;18.90;46.60;;;;;;4915480;29;20048;-88
2022/01/15 01:57:58;;;;;;;2.97;0.93;;;20.10;48.00;;;;;;4931318;29;20044;-88
2022/01/15 02:00:24;;;;;;;2.28;0.70;;;21.10;47.80;;;;;;4932394;29;20139;-88
2022/01/15 02:02:59;;;;;;;2.90;0.90;;;20.00;47.40;;;;;;4915269;29;20051;-89
2022/01/15 02:05:24;;;;;;;2.35;0.70;;;19.90;47.30;;;;;;4915739;29;20047;-89
2022/01/15 02:08:05;;;;;;;1.73;0.63;;;21.00;48.00;;;;;;4918434;29;20047;-89
2022/01/15 02:10:37;;;;;;;1.55;0.57;;;18.30;47.10;;;;;;4915524;29;20138;-88
2022/01/15 02:13:13;;;;;;;;;;;;;;;;;;;;;
2022/01/15 02:15:47;;;;;;;1.55;0.63;;;18.90;47.90;;;;;;4915840;29;20139;-88
2022/01/15 02:18:26;;;;;;;2.17;0.77;;;21.60;48.40;;;;;;4931210;29;20533;-88
2022/01/15 02:23:44;;;;;;;2.45;0.80;;;21.00;47.80;;;;;;4915179;29;20146;-89
2022/01/15 02:26:17;;;;;;;2.78;0.73;;;19.90;47.20;;;;;;4915909;29;20404;-89
2022/01/15 02:28:44;;;;;;;2.28;0.60;;;20.90;47.80;;;;;;4915828;29;20054;-88
2022/01/15 02:31:11;;;;;;;2.90;0.70;;;19.90;47.20;;;;;;4917312;29;20056;-88
2022/01/15 02:33:38;;;;;;;2.80;0.75;;;19.90;47.20;;;;;;4932087;29;20520;-89
2022/01/15 02:36:17;;;;;;;2.05;0.70;;;21.10;47.80;;;;;;4931412;29;20098;-88
2022/01/15 02:38:43;;;;;;;1.65;0.55;;;20.50;47.60;;;;;;4931670;29;20133;-89
2022/01/15 02:41:26;;;;;;;1.83;0.80;;;18.10;46.60;;;;;;4931848;29;20036;-88
2022/01/15 02:44:19;;;;;;;2.28;0.60;;;19.70;47.50;;;;;;4931215;29;20108;-88
2022/01/15 02:49:29;;;;;;;2.55;0.70;;;21.30;48.10;;;;;;4930827;29;20051;-89
2022/01/15 02:52:13;;;;;;;2.88;0.55;;;19.80;46.60;;;;;;4914554;29;20051;-88
2022/01/15 02:55:01;;;;;;;2.03;0.70;;;17.70;46.30;;;;;;4930759;29;20131;-89
2022/01/15 02:57:26;;;;;;;2.10;0.60;;;20.20;48.00;;;;;;4931364;29;20052;-88
2022/01/15 02:59:53;;;;;;;1.48;0.60;;;19.70;47.70;;;;;;4915060;29;20098;-88
2022/01/15 03:02:18;;;;;;;1.65;0.57;;;18.30;46.90;;;;;;4915695;29;20503;-89
2022/01/15 03:05:02;;;;;;;2.75;0.80;;;18.00;46.50;;;;;;4931417;29;20059;-88
2022/01/15 03:07:27;;;;;;;1.85;0.60;;;20.10;47.40;;;;;;4930453;29;20107;-87
2022/01/15 03:09:53;;;;;;;2.17;0.52;;;18.20;46.70;;;;;;4933996;29;20635;-87
2022/01/15 03:12:19;;;;;;;2.72;0.65;;;19.90;47.60;;;;;;4934447;29;20043;-87
2022/01/15 03:15:05;;;;;;;2.33;0.75;;;20.50;48.00;;;;;;4934096;29;20102;-87
2022/01/15 03:17:31;;;;;;;2.13;0.70;;;19.70;47.40;;;;;;4917629;28;20055;-87
2022/01/15 03:20:17;;;;;;;1.77;0.50;;;18.00;47.00;;;;;;4934095;29;20067;-88
2022/01/15 03:22:43;;;;;;;2.13;0.70;;;20.00;47.50;;;;;;4934236;29;20107;-87
2022/01/15 03:25:24;;;;;;;2.03;0.60;;;19.60;47.50;;;;;;4934526;29;20059;-87
2022/01/15 03:27:49;;;;;;;2.40;0.63;;;21.30;48.60;;;;;;4933648;29;20043;-87
2022/01/15 03:30:40;;;;;;;1.27;0.50;;;19.50;47.50;;;;;;4934369;29;20110;-87
2022/01/15 03:33:06;;;;;;;1.63;0.60;;;19.70;47.70;;;;;;4915327;29;20091;-87
2022/01/15 03:35:47;;;;;;;0.93;0.40;;;18.60;47.00;;;;;;4899108;29;20524;-88
2022/01/15 03:38:12;;;;;;;2.28;0.80;;;17.90;47.60;;;;;;4890009;29;20435;-87
2022/01/15 03:40:56;;;;;;;1.60;0.60;;;21.00;48.40;;;;;;4898706;29;20571;-87
2022/01/15 03:43:22;;;;;;;3.15;0.70;;;18.60;47.10;;;;;;4899767;29;20671;-88
2022/01/15 03:45:48;;;;;;;2.38;0.70;;;19.80;47.70;;;;;;4899308;29;20058;-88
2022/01/15 03:48:31;;;;;;;1.77;0.50;;;17.80;46.80;;;;;;4898789;29;20052;-87
2022/01/15 03:50:58;;;;;;;1.67;0.60;;;19.70;47.40;;;;;;4898461;29;20067;-88
2022/01/15 03:53:36;;;;;;;1.70;0.50;;;18.40;47.10;;;;;;4904139;29;20225;-88
2022/01/15 03:56:02;;;;;;;1.80;0.50;;;19.00;48.00;;;;;;4898690;29;20044;-87
2022/01/15 03:58:27;;;;;;;2.65;0.50;;;19.60;47.90;;;;;;4914920;29;20155;-88
2022/01/15 04:00:53;;;;;;;1.27;0.50;;;21.10;48.80;;;;;;4898761;29;20540;-88
2022/01/15 04:03:28;;;;;;;1.48;0.57;;;17.70;46.90;;;;;;4898361;29;20044;-88
2022/01/15 04:06:10;;;;;;;1.50;0.60;;;17.20;46.60;;;;;;4899078;29;20048;-87
2022/01/15 04:08:35;;;;;;;1.00;0.50;;;18.60;47.60;;;;;;4899115;29;20056;-88
2022/01/15 04:11:01;;;;;;;1.65;0.50;;;20.80;48.90;;;;;;4895936;29;20051;-88
2022/01/15 04:13:29;;;;;;;1.75;0.70;;;18.40;47.10;;;;;;4899216;29;20075;-88
2022/01/15 04:15:56;;;;;;;1.05;0.50;;;18.80;47.40;;;;;;4898072;29;20086;-87
2022/01/15 04:18:23;;;;;;;1.63;0.70;;;18.20;46.70;;;;;;4898930;29;20048;-89
2022/01/15 04:21:04;;;;;;;1.42;0.45;;;18.20;47.30;;;;;;4898116;29;20055;-88
2022/01/15 04:23:47;;;;;;;1.67;0.50;;;20.40;48.40;;;;;;4898163;29;20138;-88
2022/01/15 04:26:29;;;;;;;1.90;0.50;;;19.40;48.10;;;;;;4898981;29;20048;-88
2022/01/15 04:29:01;;;;;;;0.88;0.40;;;17.80;47.00;;;;;;4914543;29;20052;-88
2022/01/15 04:34:25;;;;;;;1.70;0.63;;;20.70;48.10;;;;;;4933086;29;20055;-87
2022/01/15 04:37:06;;;;;;;1.63;0.50;;;21.30;48.40;;;;;;4932636;29;20126;-88
2022/01/15 04:39:37;;;;;;;1.53;0.47;;;20.50;48.30;;;;;;4933611;29;20050;-87
2022/01/15 04:42:03;;;;;;;1.37;0.47;;;20.70;49.00;;;;;;4917313;29;20052;-88
2022/01/15 04:44:29;;;;;;;1.75;0.60;;;19.50;47.80;;;;;;4932577;29;20055;-88
2022/01/15 04:47:04;;;;;;;1.83;0.50;;;19.00;47.70;;;;;;4933081;29;20051;-88
2022/01/15 04:49:54;;;;;;;1.08;0.50;;;21.10;49.30;;;;;;4932568;29;20055;-88
2022/01/15 04:52:40;;;;;;;1.40;0.50;;;19.50;47.50;;;;;;4932276;28;20056;-88
2022/01/15 04:55:07;;;;;;;1.38;0.45;;;19.40;47.40;;;;;;4932809;29;20055;-88
2022/01/15 04:57:32;;;;;;;1.35;0.52;;;19.40;47.60;;;;;;4933107;29;20047;-88
2022/01/15 05:00:06;;;;;;;1.27;0.40;;;20.10;48.30;;;;;;4932078;29;20044;-88
2022/01/15 05:02:31;;;;;;;1.50;0.50;;;19.40;47.60;;;;;;4932747;29;20056;-88
2022/01/15 05:05:00;;;;;;;2.30;0.50;;;20.60;48.40;;;;;;4931842;29;20047;-87
2022/01/15 05:07:38;;;;;;;0.55;0.30;;;17.90;47.40;;;;;;4932249;29;20050;-88
2022/01/15 05:10:27;;;;;;;0.70;0.35;;;20.50;48.70;;;;;;4932334;29;20051;-88
2022/01/15 05:12:56;;;;;;;1.15;0.50;;;19.60;47.90;;;;;;4931710;29;20047;-86
2022/01/15 05:15:34;;;;;;;1.88;0.40;;;21.10;48.60;;;;;;4932796;29;20539;-87
2022/01/15 05:18:00;;;;;;;0.80;0.32;;;19.20;47.80;;;;;;4932495;29;20040;-87
2022/01/15 05:20:57;;;;;;;0.50;0.22;;;19.70;47.80;;;;;;4931143;29;20408;-88
2022/01/15 05:23:23;;;;;;;1.20;0.32;;;19.50;47.60;;;;;;4916595;29;20610;-88
2022/01/15 05:26:00;;;;;;;1.30;0.47;;;21.10;48.60;;;;;;4932118;29;20079;-88
2022/01/15 05:28:26;;;;;;;1.20;0.35;;;19.60;48.20;;;;;;4916865;29;20119;-87
2022/01/15 05:30:57;;;;;;;1.13;0.40;;;19.10;47.70;;;;;;4923752;29;20055;-87
2022/01/15 05:33:22;;;;;;;1.17;0.40;;;18.80;48.10;;;;;;4946645;28;20064;-88
2022/01/15 05:36:06;;;;;;;1.33;0.40;;;18.20;47.30;;;;;;4932793;29;20459;-87
2022/01/15 05:38:51;;;;;;;1.55;0.35;;;20.90;49.00;;;;;;4932050;29;20526;-88
2022/01/15 05:41:17;;;;;;;1.23;0.38;;;19.60;47.80;;;;;;4931368;29;20047;-88
2022/01/15 05:44:01;;;;;;;1.52;0.40;;;18.80;47.80;;;;;;4932354;29;20181;-88
2022/01/15 05:46:48;;;;;;;0.70;0.30;;;19.90;48.50;;;;;;4916683;29;20496;-88
2022/01/15 05:49:15;;;;;;;0.82;0.35;;;19.70;48.00;;;;;;4930565;29;20091;-88
2022/01/15 05:51:52;;;;;;;1.17;0.40;;;17.90;47.00;;;;;;4931934;29;20090;-88
2022/01/15 05:54:17;;;;;;;0.77;0.30;;;21.00;48.60;;;;;;4932385;29;20504;-88
2022/01/15 05:56:58;;;;;;;0.93;0.30;;;21.20;48.60;;;;;;4932272;29;20103;-88
2022/01/15 05:59:45;;;;;;;1.02;0.30;;;18.50;47.40;;;;;;4932197;29;20082;-88
2022/01/15 06:02:21;;;;;;;0.57;0.20;;;19.80;47.70;;;;;;4931454;29;20048;-88
2022/01/15 06:04:59;;;;;;;0.82;0.20;;;20.70;48.50;;;;;;4932028;29;20492;-88
2022/01/15 06:07:24;;;;;;;1.17;0.38;;;21.10;49.10;;;;;;4931593;29;20090;-88
2022/01/15 06:09:53;;;;;;;1.38;0.20;;;18.60;47.30;;;;;;4931301;29;20052;-88
2022/01/15 06:12:42;;;;;;;0.60;0.30;;;21.10;48.70;;;;;;4931629;29;20500;-88
2022/01/15 06:15:29;;;;;;;0.40;0.20;;;21.50;49.30;;;;;;4931388;29;20165;-87
2022/01/15 06:18:13;;;;;;;0.50;0.20;;;21.10;48.40;;;;;;4930922;29;20504;-88
2022/01/15 06:21:07;;;;;;;0.75;0.22;;;21.10;49.20;;;;;;5018403;23;20057;-88
2022/01/15 06:23:44;;;;;;;1.00;0.30;;;19.30;47.30;;;;;;4972482;28;20442;-88
2022/01/15 06:26:22;;;;;;;0.63;0.20;;;20.00;48.20;;;;;;4972529;28;20145;-88
2022/01/15 06:28:48;;;;;;;1.27;0.20;;;21.20;48.80;;;;;;4973110;28;20512;-88
2022/01/15 06:31:30;;;;;;;0.47;0.20;;;21.30;48.90;;;;;;4967016;28;20050;-87
2022/01/15 06:34:14;;;;;;;0.93;0.30;;;19.40;47.40;;;;;;4972546;28;20442;-87
2022/01/15 06:36:40;;;;;;;0.63;0.30;;;20.10;47.60;;;;;;4952429;28;20101;-88
2022/01/15 06:39:33;;;;;;;1.58;0.30;;;21.20;48.80;;;;;;4962657;28;20046;-88
2022/01/15 06:42:07;;;;;;;0.40;0.20;;;19.90;47.50;;;;;;4969542;28;20065;-87
2022/01/15 06:44:48;;;;;;;1.27;0.40;;;20.00;48.00;;;;;;4950227;28;20051;-87
2022/01/15 06:47:14;;;;;;;0.70;0.20;;;21.90;48.90;;;;;;4971155;28;20050;-87
2022/01/15 06:49:55;;;;;;;1.15;0.30;;;21.30;48.40;;;;;;4969350;28;20042;-88
2022/01/15 06:52:21;;;;;;;0.82;0.40;;;21.30;48.50;;;;;;4957136;28;20054;-88
2022/01/15 06:54:56;;;;;;;0.75;0.30;;;21.10;48.20;;;;;;4991019;23;20042;-87
2022/01/15 06:57:21;;;;;;;1.30;0.22;;;18.90;47.00;;;;;;4988717;28;20138;-88
2022/01/15 07:00:05;;;;;;;0.65;0.20;;;18.30;46.60;;;;;;4971884;28;20489;-88
2022/01/15 07:02:46;;;;;;;0.65;0.30;;;20.60;47.80;;;;;;4971338;28;20050;-87
2022/01/15 07:05:12;;;;;;;0.50;0.20;;;21.80;48.70;;;;;;4970712;28;20129;-89
2022/01/15 07:07:47;;;;;;;0.50;0.20;;;20.20;48.20;;;;;;4989109;28;20132;-88
2022/01/15 07:10:16;;;;;;;0.43;0.20;;;19.50;47.00;;;;;;4988690;28;20058;-88
2022/01/15 07:12:41;;;;;;;0.60;0.20;;;21.70;48.50;;;;;;4989317;28;20128;-88
2022/01/15 07:15:25;;;;;;;0.43;0.20;;;21.80;48.90;;;;;;4988569;28;20054;-90
2022/01/15 07:17:59;;;;;;;0.38;0.20;;;21.10;48.30;;;;;;4970362;28;20046;-88
2022/01/15 07:20:25;;;;;;;0.80;0.20;;;21.10;48.10;;;;;;4990486;28;20111;-89
2022/01/15 07:22:53;;;;;;;1.05;0.30;;;20.20;47.70;;;;;;4971280;28;20134;-88
2022/01/15 07:25:22;;;;;;;0.57;0.30;;;20.50;48.20;;;;;;4969856;28;20145;-88
2022/01/15 07:27:50;;;;;;;1.67;0.20;;;21.80;48.70;;;;;;4968106;28;20050;-89
2022/01/15 07:30:39;;;;;;;0.77;0.35;;;18.00;46.30;;;;;;4974243;28;20566;-88
2022/01/15 07:33:50;;;;;;;1.10;0.30;;;19.90;47.00;;;;;;4973803;28;20513;-90
2022/01/15 07:36:22;;;;;;;0.57;0.20;;;20.40;47.30;;;;;;4974175;28;20070;-90
2022/01/15 07:39:07;;;;;;;1.08;0.20;;;18.50;47.20;;;;;;4955806;28;20057;-90
2022/01/15 07:41:44;;;;;;;0.98;0.30;;;20.50;48.00;;;;;;4971947;28;20495;-89
2022/01/15 07:48:07;;;;;;;0.98;0.28;;;20.10;47.10;;;;;;4973139;28;20054;-90
2022/01/15 07:50:52;;;;;;;1.20;0.30;;;20.20;47.60;;;;;;4974375;28;20051;-90
2022/01/15 07:53:24;;;;;;;1.40;0.40;;;20.20;47.30;;;;;;4971501;28;20067;-90
2022/01/15 07:55:57;;;;;;;1.10;0.30;;;21.50;48.70;;;;;;4988721;28;20051;-90
2022/01/15 07:58:45;;;;;;;1.33;0.30;;;20.20;48.90;;;;;;4990515;28;20053;-88
2022/01/15 08:01:28;;;;;;;2.97;0.40;;;20.20;47.10;;;;;;4987411;28;20043;-89
2022/01/15 08:07:55;;;;;;;2.05;0.30;;;21.50;47.90;;;;;;4975174;28;20073;-89
2022/01/15 08:10:21;;;;;;;2.20;0.60;;;20.20;47.10;;;;;;4978970;28;20050;-90
2022/01/15 08:12:48;;;;;;;2.65;0.60;;;20.20;47.50;;;;;;4989632;28;20137;-89
2022/01/15 08:15:38;;;;;;;1.58;0.50;;;20.30;47.30;;;;;;4985659;28;20506;-89
2022/01/15 08:18:21;;;;;;;2.60;0.68;;;19.90;46.90;;;;;;4983350;28;20043;-89
2022/01/15 08:21:05;;;;;;;2.70;0.57;;;20.00;47.30;;;;;;4988817;28;20453;-89
2022/01/15 08:23:50;;;;;;;3.95;0.52;;;19.40;46.70;;;;;;4988245;28;20046;-89
2022/01/15 08:26:28;;;;;;;3.00;0.57;;;20.20;47.10;;;;;;4993073;28;20449;-89
2022/01/15 08:28:56;;;;;;;4.05;0.90;;;21.60;49.00;;;;;;4988956;28;20038;-89
2022/01/15 08:35:05;;;;;;;4.10;1.00;;;20.40;47.20;;;;;;4990387;28;20096;-90
2022/01/15 08:37:34;;;;;;;3.28;0.55;;;20.20;47.80;;;;;;4986315;28;20038;-89
2022/01/15 08:40:20;;;;;;;4.03;0.80;;;21.10;47.70;;;;;;4980811;28;20532;-90
2022/01/15 08:42:54;;;;;;;5.15;0.90;;;18.70;46.60;;;;;;4976055;28;20475;-90
2022/01/15 08:46:18;;;;;;;5.20;1.05;;;21.80;48.60;;;;;;4972954;28;20167;-89
2022/01/15 08:48:45;;;;;;;4.28;0.90;;;20.30;47.10;;;;;;5026796;23;20054;-92
2022/01/15 08:52:13;;;;;;;6.43;1.10;;;21.50;48.50;;;;;;4991085;28;20069;-89
2022/01/15 08:55:35;;;;;;;3.63;1.23;;;19.50;46.70;;;;;;4993659;28;20890;-92
2022/01/15 09:01:50;;;;;;;7.18;1.30;;;19.80;47.30;;;;;;5171169;23;20170;-92
2022/01/15 09:12:06;;;;;;;7.30;1.85;;;19.30;46.70;;;;;;4975435;28;20101;-92
2022/01/15 09:15:21;;;;;;;10.38;1.92;;;20.30;48.00;;;;;;4958290;28;20055;-92
2022/01/15 09:18:02;;;;;;;8.60;1.90;;;20.50;47.30;;;;;;4991106;28;20482;-92
2022/01/15 09:20:29;;;;;;;5.80;1.58;;;20.40;48.10;;;;;;4957678;28;20043;-93
2022/01/15 09:23:02;;;;;;;6.15;1.77;;;18.60;46.60;;;;;;4958261;28;20487;-93
2022/01/15 09:32:04;;;;;;;7.30;1.58;;;19.30;46.70;;;;;;4975617;28;20069;-92
2022/01/15 09:38:57;;;;;;;6.18;1.75;;;20.30;47.60;;;;;;4960290;28;20137;-93
2022/01/15 09:41:22;;;;;;;7.40;1.57;;;19.90;46.90;;;;;;4952520;28;20181;-93
2022/01/15 09:44:36;;;;;;;8.80;2.03;;;21.30;48.10;;;;;;4957605;28;20133;-93
2022/01/15 09:47:10;;;;;;;7.10;1.80;;;20.00;47.00;;;;;;4909279;29;20055;-94
2022/01/15 09:49:37;;;;;;;8.25;1.98;;;20.20;48.30;;;;;;4930416;29;20105;-83
2022/01/15 09:52:12;;;;;;;15.10;4.32;;;20.10;47.10;;;;;;4929824;29;20051;-84
2022/01/15 09:55:06;;;;;;;6.18;2.55;;;20.10;47.00;;;;;;4951138;28;20097;-84
2022/01/15 09:57:34;;;;;;;9.23;2.92;;;20.60;47.60;;;;;;4933283;29;20089;-90
2022/01/15 10:00:30;;;;;;;9.75;3.03;;;21.10;47.90;;;;;;4884684;29;20094;-87
2022/01/15 10:02:56;;;;;;;155.30;43.45;;;20.30;47.40;;;;;;4953022;28;20063;-87
2022/01/15 10:05:21;;;;;;;154.48;42.92;;;21.30;48.00;;;;;;4952185;28;20901;-87
2022/01/15 10:08:03;;;;;;;242.00;70.72;;;21.70;48.10;;;;;;4951715;28;20054;-87
2022/01/15 10:10:33;;;;;;;371.02;105.35;;;20.30;47.20;;;;;;4957812;28;20058;-88
2022/01/15 10:13:12;;;;;;;388.13;111.10;;;20.30;47.20;;;;;;4949490;28;21338;-87
2022/01/15 10:15:38;;;;;;;478.25;140.25;;;20.60;47.40;;;;;;4953357;28;20443;-90
2022/01/15 10:18:17;;;;;;;434.13;121.55;;;20.30;47.20;;;;;;4967859;28;20133;-87
2022/01/15 10:20:46;;;;;;;412.65;115.13;;;20.30;47.30;;;;;;4953208;28;20136;-89
2022/01/15 10:23:25;;;;;;;371.75;105.75;;;20.30;47.40;;;;;;4932681;29;20055;-89
2022/01/15 10:26:10;;;;;;;356.48;107.25;;;21.10;48.00;;;;;;4966947;28;20098;-90
2022/01/15 10:29:16;;;;;;;355.08;99.20;;;18.70;46.50;;;;;;4944493;29;20495;-88
2022/01/15 10:31:44;;;;;;;318.10;90.07;;;20.20;47.40;;;;;;4934340;29;20051;-85
2022/01/15 10:34:33;;;;;;;286.35;85.90;;;19.40;47.00;;;;;;4934671;29;20098;-91
2022/01/15 10:38:11;;;;;;;264.45;77.35;;;20.30;47.50;;;;;;4949751;23;20055;-86
2022/01/15 10:40:46;;;;;;;249.52;74.18;;;20.40;47.60;;;;;;4953849;28;20146;-90
2022/01/15 10:43:49;;;;;;;234.25;68.95;;;20.20;47.70;;;;;;4953977;28;20491;-91
2022/01/15 10:46:46;;;;;;;215.07;66.38;;;20.00;47.40;;;;;;4955466;28;20134;-88
2022/01/15 10:50:10;;;;;;;209.77;60.78;;;20.30;47.70;;;;;;4954504;28;20055;-90
2022/01/15 10:52:45;;;;;;;171.35;50.33;;;20.30;47.60;;;;;;4952090;28;20050;-89
2022/01/15 10:55:12;;;;;;;184.80;55.53;;;19.70;47.90;;;;;;4959703;23;20406;-90
2022/01/15 10:57:43;;;;;;;154.55;49.97;;;20.30;47.60;;;;;;4931206;29;20054;-89
2022/01/15 11:00:24;;;;;;;161.15;49.08;;;20.30;47.60;;;;;;4934726;29;20142;-88
2022/01/15 11:02:55;;;;;;;156.90;46.42;;;20.30;47.60;;;;;;4935560;29;20055;-90
2022/01/15 11:05:31;;;;;;;144.88;47.03;;;21.80;48.40;;;;;;4919161;29;20044;-89
2022/01/15 11:08:17;;;;;;;152.68;45.30;;;20.30;47.60;;;;;;4935713;29;20047;-89
2022/01/15 11:10:50;;;;;;;143.88;44.45;;;20.40;47.60;;;;;;4907380;29;20499;-89
2022/01/15 11:13:37;;;;;;;138.73;43.78;;;20.30;47.50;;;;;;4946339;29;20543;-88
2022/01/15 11:16:12;;;;;;;133.55;41.72;;;20.40;47.60;;;;;;4934468;29;20055;-87
2022/01/15 11:18:41;;;;;;;135.43;41.17;;;20.30;47.50;;;;;;4936567;28;20053;-88
2022/01/15 11:21:16;;;;;;;125.03;38.20;;;20.40;47.60;;;;;;4950101;29;20051;-89
2022/01/15 11:23:42;;;;;;;121.78;39.50;;;20.40;47.50;;;;;;4934634;29;20134;-89
2022/01/15 11:26:14;;;;;;;130.95;38.85;;;20.40;47.50;;;;;;4948350;28;20069;-89
2022/01/15 11:28:42;;;;;;;113.93;37.78;;;20.40;47.50;;;;;;4944914;28;20491;-89
2022/01/15 11:31:23;;;;;;;112.38;38.17;;;20.40;47.50;;;;;;4940568;28;20635;-89
2022/01/15 11:33:53;;;;;;;104.68;34.42;;;20.40;47.40;;;;;;4910102;29;20059;-89
2022/01/15 11:36:33;;;;;;;112.00;35.45;;;20.40;47.40;;;;;;4938663;29;20047;-89
2022/01/15 11:39:00;;;;;;;103.88;33.72;;;20.40;47.40;;;;;;4940580;29;20062;-89
2022/01/15 11:41:45;;;;;;;98.10;33.83;;;20.40;47.40;;;;;;4926843;29;20202;-90
2022/01/15 11:44:29;;;;;;;100.05;33.10;;;20.40;47.40;;;;;;4937868;28;20043;-89
2022/01/15 11:47:27;;;;;;;102.28;32.15;;;20.30;47.50;;;;;;4938209;29;20054;-88
2022/01/15 11:50:33;;;;;;;97.20;32.70;;;20.50;47.40;;;;;;4911749;29;20851;-90
2022/01/15 11:52:58;;;;;;;87.00;30.55;;;20.40;47.30;;;;;;4899376;29;20591;-89
2022/01/15 11:55:53;;;;;;;84.82;29.38;;;20.10;47.30;;;;;;4898205;29;20146;-89
2022/01/15 11:58:21;;;;;;;86.78;31.38;;;20.10;47.20;;;;;;4898557;29;20056;-90
2022/01/15 12:01:37;;;;;;;80.07;28.33;;;20.10;47.30;;;;;;4889161;29;20091;-89
2022/01/15 12:04:25;;;;;;;75.97;27.42;;;20.40;47.30;;;;;;4899275;29;20084;-89
2022/01/15 12:07:18;;;;;;;75.47;25.63;;;20.40;47.40;;;;;;4912963;29;20668;-89
2022/01/15 12:09:50;;;;;;;77.85;27.38;;;20.40;47.30;;;;;;4930042;29;20063;-89
2022/01/15 12:12:19;;;;;;;77.30;26.83;;;20.50;47.30;;;;;;4938251;29;20051;-87
2022/01/15 12:14:57;;;;;;;64.88;24.88;;;20.50;47.30;;;;;;4937607;29;20050;-88
2022/01/15 12:17:31;;;;;;;67.03;25.38;;;20.50;47.30;;;;;;4937581;29;20043;-86
2022/01/15 12:19:58;;;;;;;66.07;24.45;;;20.50;47.30;;;;;;4937965;29;20483;-88
2022/01/15 12:22:39;;;;;;;68.75;24.30;;;20.50;47.30;;;;;;4937623;29;20061;-87
2022/01/15 12:25:05;;;;;;;70.03;24.25;;;20.50;47.30;;;;;;4953419;29;20047;-86
2022/01/15 12:27:31;;;;;;;64.22;23.33;;;20.50;47.30;;;;;;4932497;29;20178;-88
2022/01/15 12:29:59;;;;;;;63.75;23.38;;;20.50;47.20;;;;;;4931178;29;20126;-89
2022/01/15 12:32:38;;;;;;;67.88;22.75;;;20.50;47.30;;;;;;4935044;28;20062;-88
2022/01/15 12:35:04;;;;;;;64.25;21.95;;;20.50;47.20;;;;;;4932545;29;20051;-88
2022/01/15 12:38:16;;;;;;;64.47;21.50;;;20.50;47.20;;;;;;4920472;29;20126;-89
2022/01/15 12:44:29;;;;;;;58.05;20.10;;;20.20;47.20;;;;;;4874542;29;20057;-87
2022/01/15 12:47:12;;;;;;;59.30;21.67;;;20.30;47.10;;;;;;4859551;29;20546;-87
2022/01/15 12:49:52;;;;;;;52.10;20.05;;;20.70;47.30;;;;;;4873094;29;20486;-88
2022/01/15 12:52:30;;;;;;;46.75;18.73;;;21.50;47.70;;;;;;5254567;23;20427;-85
2022/01/15 12:54:57;;;;;;;52.28;20.55;;;18.60;46.40;;;;;;4969381;28;20471;-86
2022/01/15 12:57:45;;;;;;;49.75;18.38;;;20.50;47.20;;;;;;4961911;28;20079;-87
2022/01/15 13:00:13;;;;;;;52.72;18.60;;;20.50;47.20;;;;;;4965292;28;20046;-87
2022/01/15 13:02:42;;;;;;;50.95;18.27;;;20.50;47.20;;;;;;4967526;28;20057;-88
2022/01/15 13:05:12;;;;;;;49.72;17.10;;;21.30;47.60;;;;;;4981092;28;20054;-87
2022/01/15 13:07:58;;;;;;;39.53;14.65;;;20.50;47.20;;;;;;5002231;23;20106;-90
2022/01/15 13:11:03;;;;;;;37.08;12.30;;;20.50;47.20;;;;;;5115794;23;20109;-87
2022/01/15 13:14:46;;;;;;;23.75;9.90;;;19.50;46.50;;;;;;4925423;28;20139;-88
2022/01/15 13:17:44;;;;;;;16.58;7.57;;;20.20;46.30;;;;;;4931765;29;20056;-89
2022/01/15 13:20:48;;;;;;;18.20;7.55;;;20.00;45.80;;;;;;4945211;29;20067;-89
2022/01/15 13:23:20;;;;;;;18.13;7.15;;;20.40;45.70;;;;;;4917269;29;20114;-88
2022/01/15 13:25:52;;;;;;;21.17;7.10;;;20.40;46.10;;;;;;4915998;29;20536;-87
2022/01/15 13:30:51;;;;;;;16.42;6.10;;;20.40;46.30;;;;;;5257415;23;20105;-87
2022/01/15 13:33:19;;;;;;;16.15;6.30;;;20.50;47.40;;;;;;4953555;28;20090;-88
2022/01/15 13:35:48;;;;;;;15.40;6.20;;;20.00;47.50;;;;;;5090405;23;20107;-88
2022/01/15 13:38:51;;;;;;;15.20;6.50;;;20.80;46.90;;;;;;4971430;28;20149;-87
2022/01/15 13:41:45;;;;;;;13.77;5.93;;;19.80;46.10;;;;;;4966560;28;20058;-87
2022/01/15 13:44:21;;;;;;;17.13;5.80;;;20.50;46.50;;;;;;4967137;28;20047;-88
2022/01/15 13:46:49;;;;;;;17.13;5.70;;;20.10;46.30;;;;;;4956422;28;20054;-89
2022/01/15 13:49:19;;;;;;;16.35;6.53;;;20.00;46.30;;;;;;4962168;28;20069;-87
2022/01/15 13:54:59;;;;;;;13.30;5.28;;;19.20;46.00;;;;;;4959536;28;20058;-88
2022/01/15 13:57:25;;;;;;;14.50;5.57;;;20.30;46.50;;;;;;4972583;28;20054;-88
2022/01/15 14:00:16;;;;;;;12.65;5.05;;;20.40;46.80;;;;;;4967508;28;20078;-88
2022/01/15 14:03:10;;;;;;;14.48;5.47;;;20.10;46.20;;;;;;4970196;28;20050;-90
2022/01/15 14:05:39;;;;;;;12.13;4.20;;;19.60;46.00;;;;;;4971662;28;20818;-89
2022/01/15 14:08:12;;;;;;;14.10;5.28;;;20.10;46.50;;;;;;4973098;28;20035;-89
2022/01/15 14:10:41;;;;;;;14.45;5.30;;;20.30;46.40;;;;;;4970158;28;20122;-88
2022/01/15 14:13:16;;;;;;;12.88;4.95;;;20.90;46.60;;;;;;4968822;28;20039;-89
2022/01/15 14:16:00;;;;;;;13.48;4.57;;;18.40;45.40;;;;;;4973463;28;20094;-89
2022/01/15 14:21:52;;;;;;;12.18;4.30;;;20.60;46.30;;;;;;4961014;28;20063;-89
2022/01/15 14:24:36;;;;;;;12.25;3.88;;;18.20;45.20;;;;;;4954351;28;20061;-89
2022/01/15 14:27:08;;;;;;;9.77;3.72;;;20.30;46.40;;;;;;4978497;28;20052;-88
2022/01/15 14:33:27;;;;;;;10.60;3.42;;;20.80;47.00;;;;;;4984728;28;20498;-85
2022/01/15 14:36:14;;;;;;;10.63;3.53;;;19.90;46.90;;;;;;4968091;28;20038;-88
2022/01/15 14:49:50;;;;;;;8.70;2.55;;;20.60;47.10;;;;;;4924017;29;20404;-88
2022/01/15 14:52:42;;;;;;;8.35;2.90;;;20.50;47.30;;;;;;4896052;29;20175;-91
2022/01/15 14:59:14;;;;;;;8.82;2.65;;;20.70;47.10;;;;;;5096425;23;20054;-87
2022/01/15 15:01:59;;;;;;;8.60;2.95;;;20.30;46.90;;;;;;4935024;29;20161;-86